Time;durP1;ratioP1;P1;durP2;ratioP2;P2;SDS_P1;SDS_P2;PMS_P1;PMS_P2;Temp;Humidity;BMP_temperature;BMP_pressure;BME280_temperature;BME280_humidity;BME280_pressure;Samples;Min_cycle;Max_cycle;Signal;HPM_P1;HPM_P2
2021/10/29 00:01:41;;;;;;;107.00;56.85;;;;;;;6.12;89.03;101011.19;1808121;79;25563;-48
2021/10/29 00:04:09;;;;;;;94.70;53.63;;;;;;;6.09;88.82;101015.73;1808038;79;28097;-47
2021/10/29 00:06:36;;;;;;;99.00;54.27;;;;;;;6.08;88.58;101012.77;1807925;78;25538;-47
2021/10/29 00:09:04;;;;;;;93.00;53.13;;;;;;;6.04;88.75;101008.45;1807931;79;25529;-48
2021/10/29 00:11:32;;;;;;;92.53;53.02;;;;;;;6.02;88.87;101006.57;1807967;79;25654;-48
2021/10/29 00:13:59;;;;;;;94.13;50.78;;;;;;;5.97;88.53;101003.31;1808065;79;25547;-47
2021/10/29 00:16:27;;;;;;;89.40;49.88;;;;;;;5.96;88.30;100998.23;1808015;79;27349;-47
2021/10/29 00:18:54;;;;;;;94.95;53.85;;;;;;;5.89;88.06;100997.09;1807885;78;25363;-48
2021/10/29 00:21:22;;;;;;;96.00;53.90;;;;;;;5.88;88.76;101002.17;1807985;79;25324;-49
2021/10/29 00:23:49;;;;;;;93.05;53.38;;;;;;;5.90;89.21;100996.55;1807946;79;25667;-49
2021/10/29 00:26:17;;;;;;;94.95;53.30;;;;;;;5.90;89.42;100996.55;1808024;78;25389;-47
2021/10/29 00:28:45;;;;;;;97.62;54.35;;;;;;;5.87;88.87;100992.48;1807967;79;27791;-47
2021/10/29 00:31:12;;;;;;;94.97;53.70;;;;;;;5.87;89.46;100997.06;1807893;78;25346;-46
2021/10/29 00:33:40;;;;;;;98.35;54.67;;;;;;;5.88;89.43;100989.29;1808041;78;25428;-47
2021/10/29 00:36:07;;;;;;;102.12;55.10;;;;;;;5.87;89.52;100984.98;1807938;79;27778;-47
2021/10/29 00:38:35;;;;;;;102.17;54.25;;;;;;;5.89;89.52;100986.86;1808027;79;25511;-49
2021/10/29 00:41:05;;;;;;;96.63;54.38;;;;;;;5.87;89.53;100984.44;1807992;79;27802;-47
2021/10/29 00:43:32;;;;;;;96.78;54.58;;;;;;;5.87;89.39;100976.92;1808002;79;25813;-47
2021/10/29 00:46:00;;;;;;;100.92;55.50;;;;;;;5.85;89.60;100981.20;1807962;78;25377;-46
2021/10/29 00:48:28;;;;;;;93.82;56.23;;;;;;;5.85;89.75;100971.01;1807903;79;25615;-48
2021/10/29 00:50:56;;;;;;;109.87;57.58;;;;;;;5.84;89.51;100976.92;1807980;79;25397;-47
2021/10/29 00:53:24;;;;;;;101.20;58.85;;;;;;;5.84;89.95;100976.09;1808007;78;27317;-47
2021/10/29 00:55:51;;;;;;;107.63;57.78;;;;;;;5.85;89.95;100971.81;1807893;79;25539;-47
2021/10/29 00:58:19;;;;;;;101.07;57.83;;;;;;;5.86;90.28;100970.75;1807990;79;25401;-49
2021/10/29 01:00:47;;;;;;;108.20;58.38;;;;;;;5.90;90.19;100976.41;1807964;79;25630;-48
2021/10/29 01:03:14;;;;;;;106.20;57.95;;;;;;;5.88;90.07;100965.92;1808059;78;25419;-47
2021/10/29 01:05:43;;;;;;;98.42;54.98;;;;;;;5.91;90.04;100967.30;1808108;79;27179;-48
2021/10/29 01:08:11;;;;;;;113.68;58.92;;;;;;;5.91;90.18;100965.41;1807898;79;25619;-47
2021/10/29 01:10:38;;;;;;;100.85;57.80;;;;;;;5.92;90.27;100957.61;1807952;78;25441;-49
2021/10/29 01:13:06;;;;;;;113.20;58.98;;;;;;;5.92;90.08;100956.81;1807962;79;25549;-51
2021/10/29 01:15:34;;;;;;;109.72;58.17;;;;;;;5.91;90.16;100956.01;1807969;79;25560;-47
2021/10/29 01:18:02;;;;;;;105.65;59.38;;;;;;;5.91;90.15;100952.53;1807937;79;27179;-48
2021/10/29 01:20:29;;;;;;;107.90;61.55;;;;;;;5.90;90.03;100950.36;1807844;79;27163;-49
2021/10/29 01:22:57;;;;;;;109.78;61.85;;;;;;;5.90;90.31;100951.70;1807949;78;25456;-48
2021/10/29 01:25:24;;;;;;;109.40;59.18;;;;;;;5.89;90.29;100952.78;1807989;78;26184;-52
2021/10/29 01:27:52;;;;;;;95.90;56.02;;;;;;;5.89;90.19;100943.90;1807933;79;25499;-49
2021/10/29 01:30:19;;;;;;;102.25;58.13;;;;;;;5.89;89.91;100950.61;1796910;79;26718;-48
2021/10/29 01:32:47;;;;;;;101.50;54.90;;;;;;;5.87;90.23;100948.19;1807912;79;25554;-51
2021/10/29 01:35:16;;;;;;;100.72;55.88;;;;;;;5.87;90.20;100945.50;1808061;79;25357;-52
2021/10/29 01:37:44;;;;;;;106.52;58.20;;;;;;;5.87;90.11;100944.70;1808221;79;25619;-50
2021/10/29 01:40:17;;;;;;;95.42;53.90;;;;;;;5.85;90.08;100938.25;1807914;79;25519;-47
2021/10/29 01:42:47;;;;;;;98.50;55.75;;;;;;;5.83;89.81;100939.59;1808008;79;28125;-49
2021/10/29 01:45:16;;;;;;;102.05;58.10;;;;;;;5.82;90.21;100937.97;1807958;78;25602;-49
2021/10/29 01:47:45;;;;;;;103.45;58.65;;;;;;;5.81;90.03;100933.14;1808271;79;25515;-49
2021/10/29 01:50:12;;;;;;;102.67;57.30;;;;;;;5.80;89.90;100934.20;1808179;79;26523;-47
2021/10/29 01:52:40;;;;;;;96.40;56.68;;;;;;;5.79;90.26;100926.69;1808248;79;25377;-50
2021/10/29 01:55:09;;;;;;;103.53;57.33;;;;;;;5.81;90.13;100931.80;1808117;79;27184;-49
2021/10/29 01:57:36;;;;;;;104.20;58.98;;;;;;;5.78;90.03;100924.26;1808193;79;25508;-50
2021/10/29 02:00:07;;;;;;;105.72;58.50;;;;;;;5.77;89.95;100925.31;1808149;78;25378;-49
2021/10/29 02:02:34;;;;;;;106.83;58.85;;;;;;;5.75;89.84;100924.77;1808117;78;25624;-47
2021/10/29 02:05:03;;;;;;;96.05;54.30;;;;;;;5.73;89.92;100916.98;1808050;78;25507;-50
2021/10/29 02:07:30;;;;;;;99.00;55.90;;;;;;;5.71;89.75;100914.30;1808136;79;27229;-49
2021/10/29 02:09:57;;;;;;;103.38;55.43;;;;;;;5.69;89.86;100911.08;1807945;79;25500;-48
2021/10/29 02:12:25;;;;;;;101.85;57.23;;;;;;;5.68;89.79;100906.77;1808161;79;25520;-49
2021/10/29 02:14:53;;;;;;;106.72;58.05;;;;;;;5.67;90.17;100918.04;1808143;78;25580;-52
2021/10/29 02:17:24;;;;;;;96.17;53.73;;;;;;;5.67;90.29;100917.21;1808226;78;25567;-47
2021/10/29 02:19:52;;;;;;;98.30;56.45;;;;;;;5.67;90.48;100916.70;1808110;79;27187;-49
2021/10/29 02:22:20;;;;;;;110.60;58.42;;;;;;;5.67;90.08;100914.53;1808045;79;25599;-49
2021/10/29 02:24:48;;;;;;;97.47;55.28;;;;;;;5.65;90.20;100908.08;1808099;79;25413;-50
2021/10/29 02:27:15;;;;;;;91.40;53.65;;;;;;;5.65;89.98;100907.28;1808087;79;25822;-48
2021/10/29 02:29:43;;;;;;;100.82;54.30;;;;;;;5.63;89.94;100904.05;1808096;79;25397;-47
2021/10/29 02:32:10;;;;;;;105.52;56.75;;;;;;;5.59;89.78;100904.56;1808120;79;28076;-48
2021/10/29 02:34:38;;;;;;;93.35;52.93;;;;;;;5.57;89.78;100909.39;1808070;78;25377;-48
2021/10/29 02:37:05;;;;;;;101.20;57.62;;;;;;;5.57;90.20;100909.94;1808205;78;25553;-50
2021/10/29 02:39:33;;;;;;;96.55;54.53;;;;;;;5.54;90.08;100903.20;1808062;79;25619;-48
2021/10/29 02:42:04;;;;;;;98.60;56.50;;;;;;;5.54;89.98;100903.74;1808097;79;25405;-49
2021/10/29 02:44:31;;;;;;;89.67;50.75;;;;;;;5.53;90.07;100906.14;1808328;78;28080;-47
2021/10/29 02:46:58;;;;;;;95.10;55.03;;;;;;;5.52;90.23;100907.22;1808066;78;25731;-47
2021/10/29 02:49:26;;;;;;;96.55;53.55;;;;;;;5.51;90.36;100904.25;1808105;79;25567;-48
2021/10/29 02:51:55;;;;;;;98.80;53.35;;;;;;;5.49;89.82;100902.38;1808038;79;25618;-48
2021/10/29 02:54:23;;;;;;;96.28;56.28;;;;;;;5.46;89.90;100902.34;1808247;78;25511;-49
2021/10/29 02:56:50;;;;;;;97.67;54.80;;;;;;;5.45;90.38;100902.09;1808051;79;27186;-48
2021/10/29 02:59:18;;;;;;;96.32;54.40;;;;;;;5.42;89.98;100898.58;1808031;79;25815;-47
2021/10/29 03:01:45;;;;;;;98.58;53.55;;;;;;;5.41;89.95;100907.67;1808122;79;25565;-50
2021/10/29 03:04:13;;;;;;;95.92;53.33;;;;;;;5.41;90.36;100902.31;1808991;78;26334;-47
2021/10/29 03:06:40;;;;;;;91.47;50.65;;;;;;;5.41;90.90;100909.84;1811249;79;25350;-47
2021/10/29 03:09:10;;;;;;;95.12;54.08;;;;;;;5.42;90.56;100902.59;1812280;79;27194;-50
2021/10/29 03:11:37;;;;;;;;;;;;;;;5.42;90.63;100904.73;1816106;79;25630;-49
2021/10/29 03:14:05;;;;;;;90.92;51.75;;;;;;;5.44;91.07;100897.77;1813504;79;25085;-47
2021/10/29 03:16:32;;;;;;;91.02;53.08;;;;;;;5.40;90.79;100894.81;1813486;78;26232;-48
2021/10/29 03:19:00;;;;;;;91.47;51.90;;;;;;;5.41;90.83;100894.27;1813573;79;25659;-47
2021/10/29 03:21:27;;;;;;;95.80;53.92;;;;;;;5.42;91.24;100898.03;1813491;79;27199;-49
2021/10/29 03:23:55;;;;;;;92.40;53.15;;;;;;;5.42;91.33;100881.94;1813498;79;25366;-47
2021/10/29 03:26:22;;;;;;;99.85;55.30;;;;;;;5.42;91.36;100886.50;1813495;79;25518;-49
2021/10/29 03:28:50;;;;;;;97.05;52.60;;;;;;;5.40;90.93;100890.78;1813499;79;25802;-52
2021/10/29 03:31:18;;;;;;;95.85;54.23;;;;;;;5.39;91.17;100889.70;1813517;79;25504;-50
2021/10/29 03:33:46;;;;;;;96.37;53.33;;;;;;;5.36;90.61;100886.19;1813484;79;27198;-47
2021/10/29 03:36:14;;;;;;;94.05;52.35;;;;;;;5.35;90.84;100893.44;1813435;79;25392;-48
2021/10/29 03:38:58;;;;;;;97.27;54.30;;;;;;;5.35;90.67;100886.73;1813433;79;25519;-47
2021/10/29 03:41:24;;;;;;;96.53;53.10;;;;;;;5.33;90.77;100880.81;1813110;78;26056;-47
2021/10/29 03:43:56;;;;;;;94.07;54.08;;;;;;;5.33;90.71;100878.65;1813714;78;32318;-47
2021/10/29 03:46:25;;;;;;;92.47;52.45;;;;;;;5.32;90.61;100875.71;1813321;78;30388;-47
2021/10/29 03:49:12;;;;;;;91.32;52.75;;;;;;;5.31;90.69;100876.25;1813229;78;25594;-48
2021/10/29 03:51:37;;;;;;;95.32;51.95;;;;;;;5.30;90.84;100873.28;1812740;78;25502;-46
2021/10/29 03:56:42;;;;;;;93.70;51.80;;;;;;;5.30;91.01;100872.48;1813451;79;25568;-47
2021/10/29 03:59:06;;;;;;;90.12;51.65;;;;;;;5.31;91.08;100874.08;1813027;78;27621;-47
2021/10/29 04:01:33;;;;;;;91.35;49.88;;;;;;;5.30;90.97;100861.76;1813560;78;25397;-47
2021/10/29 04:04:01;;;;;;;94.13;53.70;;;;;;;5.29;91.08;100865.49;1813357;79;25409;-46
2021/10/29 04:06:29;;;;;;;92.33;53.30;;;;;;;5.29;91.11;100856.11;1813461;79;25679;-47
2021/10/29 04:08:56;;;;;;;94.85;52.55;;;;;;;5.26;90.99;100854.77;1813369;79;25556;-46
2021/10/29 04:11:26;;;;;;;91.12;52.53;;;;;;;5.30;91.55;100851.02;1813466;79;27207;-46
2021/10/29 04:13:53;;;;;;;85.92;50.90;;;;;;;5.30;91.21;100851.83;1813490;79;25607;-46
2021/10/29 04:16:21;;;;;;;95.35;52.75;;;;;;;5.30;91.42;100857.73;1813514;79;25535;-46
2021/10/29 04:18:49;;;;;;;85.28;49.95;;;;;;;5.31;91.12;100852.62;1813498;79;25551;-46
2021/10/29 04:21:16;;;;;;;91.92;53.35;;;;;;;5.29;91.44;100851.53;1813557;79;25551;-48
2021/10/29 04:23:44;;;;;;;90.60;50.88;;;;;;;5.31;91.23;100848.09;1813433;79;27185;-46
2021/10/29 04:26:11;;;;;;;96.57;52.00;;;;;;;5.31;91.72;100848.59;1813309;78;25349;-46
2021/10/29 04:28:42;;;;;;;96.17;51.83;;;;;;;5.31;91.27;100841.89;1813381;78;25427;-46
2021/10/29 04:31:15;;;;;;;85.00;49.90;;;;;;;5.30;91.13;100844.32;1813393;78;27957;-46
2021/10/29 04:33:39;;;;;;;89.35;50.67;;;;;;;5.30;91.15;100838.95;1813055;78;25491;-46
2021/10/29 04:36:08;;;;;;;92.22;51.50;;;;;;;5.30;91.14;100837.61;1813531;79;27186;-47
2021/10/29 04:38:36;;;;;;;91.10;50.15;;;;;;;5.30;91.95;100841.09;1813360;79;25531;-48
2021/10/29 04:41:04;;;;;;;90.53;52.20;;;;;;;5.31;91.31;100841.38;1813383;79;25336;-47
2021/10/29 04:43:31;;;;;;;97.42;53.25;;;;;;;5.33;91.44;100842.44;1813386;79;25619;-47
2021/10/29 04:45:59;;;;;;;82.85;49.45;;;;;;;5.34;91.45;100839.50;1813413;79;25468;-46
2021/10/29 04:48:27;;;;;;;89.67;48.90;;;;;;;5.34;91.37;100834.13;1813371;79;27238;-47
2021/10/29 04:50:55;;;;;;;86.70;50.12;;;;;;;5.35;91.45;100833.62;1813349;79;25338;-47
2021/10/29 04:53:26;;;;;;;90.38;51.90;;;;;;;5.33;91.04;100829.02;1813522;79;25452;-47
2021/10/29 04:55:56;;;;;;;89.58;49.75;;;;;;;5.33;91.04;100826.34;1813461;79;25678;-47
2021/10/29 04:58:27;;;;;;;93.33;51.60;;;;;;;5.33;91.14;100825.00;1813441;79;25488;-47
2021/10/29 05:00:54;;;;;;;87.05;48.68;;;;;;;5.31;90.69;100824.45;1813410;79;27997;-46
2021/10/29 05:03:22;;;;;;;86.87;51.18;;;;;;;5.27;90.51;100823.37;1813319;79;27145;-47
2021/10/29 05:05:50;;;;;;;85.62;49.05;;;;;;;5.26;90.57;100821.75;1813318;77;25550;-46
2021/10/29 05:08:17;;;;;;;86.20;49.35;;;;;;;5.23;90.49;100818.53;1813372;79;26393;-46
2021/10/29 05:10:44;;;;;;;80.55;47.55;;;;;;;5.22;90.78;100822.80;1813371;79;25554;-46
2021/10/29 05:13:12;;;;;;;81.00;48.63;;;;;;;5.21;90.76;100828.71;1813372;79;27201;-46
2021/10/29 05:15:44;;;;;;;87.33;49.80;;;;;;;5.19;91.10;100821.98;1813536;79;25700;-47
2021/10/29 05:18:17;;;;;;;85.38;47.65;;;;;;;5.19;90.90;100821.98;1813405;78;25554;-48
2021/10/29 05:20:43;;;;;;;81.70;47.58;;;;;;;5.20;90.88;100821.72;1812617;78;25616;-47
2021/10/29 05:23:12;;;;;;;82.10;47.75;;;;;;;5.20;91.02;100831.11;1813590;79;26144;-46
2021/10/29 05:25:40;;;;;;;88.97;49.00;;;;;;;5.17;90.96;100822.78;1813531;79;27313;-45
2021/10/29 05:28:09;;;;;;;85.75;48.75;;;;;;;5.16;90.76;100819.30;1813320;78;25772;-47
2021/10/29 05:30:38;;;;;;;85.43;48.30;;;;;;;5.13;90.62;100821.16;1813620;79;25437;-46
2021/10/29 05:33:05;;;;;;;79.30;46.97;;;;;;;5.13;90.46;100819.02;1813612;79;26392;-48
2021/10/29 05:35:33;;;;;;;87.05;49.15;;;;;;;5.11;90.50;100815.76;1813440;79;25357;-46
2021/10/29 05:38:03;;;;;;;83.35;46.37;;;;;;;5.10;90.50;100820.32;1813457;79;28226;-46
2021/10/29 05:40:32;;;;;;;80.67;46.18;;;;;;;5.08;90.50;100819.78;1813291;78;25390;-50
2021/10/29 05:43:00;;;;;;;81.80;45.95;;;;;;;5.07;90.50;100819.50;1813400;79;25338;-51
2021/10/29 05:45:27;;;;;;;82.57;48.02;;;;;;;5.04;90.70;100819.50;1813377;79;26352;-46
2021/10/29 05:48:00;;;;;;;78.45;47.08;;;;;;;5.06;90.57;100820.58;1813426;79;25368;-47
2021/10/29 05:50:24;;;;;;;82.27;47.25;;;;;;;5.03;90.66;100816.53;1813139;78;27208;-47
2021/10/29 05:52:54;;;;;;;78.42;46.08;;;;;;;5.03;90.39;100819.75;1813279;79;27148;-46
2021/10/29 05:55:22;;;;;;;83.00;47.25;;;;;;;5.03;90.44;100819.75;1813529;78;25594;-46
2021/10/29 05:57:54;;;;;;;81.28;46.77;;;;;;;5.04;90.44;100818.70;1813373;78;26204;-46
2021/10/29 06:00:31;;;;;;;86.80;47.13;;;;;;;5.05;90.43;100822.97;1813436;79;25409;-47
2021/10/29 06:03:06;;;;;;;77.85;44.60;;;;;;;5.07;90.39;100827.54;1813480;79;27314;-46
2021/10/29 06:05:34;;;;;;;76.82;43.83;;;;;;;5.06;90.42;100828.62;1811121;78;25541;-47
2021/10/29 06:08:01;;;;;;;74.50;45.55;;;;;;;5.08;90.38;100830.50;1805386;79;25584;-48
2021/10/29 06:10:29;;;;;;;78.42;44.03;;;;;;;5.11;90.42;100834.53;1805809;78;25750;-48
2021/10/29 06:12:57;;;;;;;79.12;46.23;;;;;;;5.13;90.33;100828.39;1807965;79;25502;-48
2021/10/29 06:15:25;;;;;;;77.30;45.98;;;;;;;5.13;90.35;100828.39;1807986;79;27326;-49
2021/10/29 06:17:53;;;;;;;84.25;46.02;;;;;;;5.17;90.36;100834.84;1807902;79;25098;-47
2021/10/29 06:20:21;;;;;;;77.22;45.28;;;;;;;5.18;90.34;100837.27;1808011;78;25365;-47
2021/10/29 06:22:52;;;;;;;74.62;45.80;;;;;;;5.19;90.44;100834.88;1808224;79;27825;-47
2021/10/29 06:25:24;;;;;;;77.15;44.25;;;;;;;5.21;90.33;100835.42;1808023;78;25519;-47
2021/10/29 06:28:13;;;;;;;75.10;43.55;;;;;;;5.25;90.37;100839.72;1807977;78;27205;-49
2021/10/29 06:30:44;;;;;;;78.60;46.73;;;;;;;5.31;90.51;100846.75;1807592;78;25742;-47
2021/10/29 06:33:16;;;;;;;74.67;43.70;;;;;;;5.48;91.47;100841.17;1807990;78;25495;-48
2021/10/29 06:35:44;;;;;;;81.20;46.05;;;;;;;5.62;90.88;100841.53;1808091;79;25837;-46
2021/10/29 06:38:13;;;;;;;77.05;44.88;;;;;;;5.76;90.77;100843.19;1808104;78;25401;-47
2021/10/29 06:40:46;;;;;;;;;;;;;;;5.87;90.52;100847.50;1810756;79;27223;-48
2021/10/29 06:43:20;;;;;;;71.47;41.28;;;;;;;5.97;90.31;100849.45;1807636;78;25519;-51
2021/10/29 06:59:51;;;;;;;69.05;41.80;;;;;;;6.52;88.63;100862.73;1808076;79;25515;-46
2021/10/29 07:40:09;;;;;;;40.48;28.62;;;;;;;10.08;82.34;100875.62;1808008;79;25389;-47
2021/10/29 07:42:51;;;;;;;40.73;29.72;;;;;;;10.42;82.33;100871.37;1808048;79;25602;-47
2021/10/29 07:45:13;;;;;;;47.00;28.85;;;;;;;10.79;81.86;100874.31;1807649;78;25353;-48
2021/10/29 07:47:41;;;;;;;38.05;27.10;;;;;;;11.15;79.94;100873.70;1808041;79;27775;-46
2021/10/29 07:50:12;;;;;;;40.75;27.37;;;;;;;11.28;77.37;100866.70;1807907;79;25572;-47
2021/10/29 07:52:43;;;;;;;40.17;27.15;;;;;;;11.56;79.21;100873.75;1807942;79;25512;-48
2021/10/29 07:55:15;;;;;;;41.90;28.23;;;;;;;11.98;78.38;100868.87;1807870;78;26156;-49
2021/10/29 07:57:46;;;;;;;38.50;26.55;;;;;;;12.32;78.02;100878.66;1808065;79;25550;-47
2021/10/29 08:00:18;;;;;;;39.55;26.40;;;;;;;12.70;77.55;100886.48;1807994;79;27182;-46
2021/10/29 08:02:50;;;;;;;41.80;28.15;;;;;;;13.06;75.01;100878.00;1807958;79;25418;-48
2021/10/29 08:05:18;;;;;;;42.13;27.07;;;;;;;13.32;71.19;100880.87;1807982;78;25389;-48
2021/10/29 08:07:46;;;;;;;38.65;25.80;;;;;;;13.54;72.16;100875.13;1808282;79;25552;-48
2021/10/29 08:10:13;;;;;;;35.65;26.12;;;;;;;13.59;68.83;100878.49;1808037;78;25578;-48
2021/10/29 08:12:41;;;;;;;36.93;25.65;;;;;;;13.74;69.41;100884.06;1807995;79;27151;-48
2021/10/29 08:15:10;;;;;;;31.97;24.02;;;;;;;13.87;66.27;100882.31;1807952;79;25529;-47
2021/10/29 08:17:41;;;;;;;37.80;26.85;;;;;;;13.91;67.98;100879.23;1808253;79;25571;-47
2021/10/29 08:20:13;;;;;;;39.20;25.48;;;;;;;14.06;67.80;100874.44;1808001;78;25605;-45
2021/10/29 08:22:41;;;;;;;35.98;25.27;;;;;;;14.20;67.71;100871.81;1808095;79;25550;-51
2021/10/29 08:25:11;;;;;;;36.90;25.17;;;;;;;14.41;67.37;100874.47;1808245;78;27193;-50
2021/10/29 08:27:41;;;;;;;36.05;26.48;;;;;;;14.70;66.60;100876.55;1807922;79;25328;-50
2021/10/29 08:30:10;;;;;;;35.33;24.72;;;;;;;14.81;63.96;100873.72;1808125;79;25357;-51
2021/10/29 08:32:42;;;;;;;34.88;25.85;;;;;;;14.85;64.15;100878.77;1808119;79;30979;-47
2021/10/29 08:35:10;;;;;;;36.83;26.80;;;;;;;14.89;62.79;100882.44;1808079;78;25508;-47
2021/10/29 08:37:41;;;;;;;36.17;25.97;;;;;;;14.94;62.03;100876.81;1808138;79;27218;-49
2021/10/29 08:40:10;;;;;;;39.08;25.72;;;;;;;15.07;61.45;100878.33;1807881;78;25822;-51
2021/10/29 08:42:40;;;;;;;39.92;26.68;;;;;;;15.11;61.32;100875.19;1808004;78;25516;-50
2021/10/29 08:45:09;;;;;;;42.00;27.05;;;;;;;15.06;61.50;100869.34;1808099;79;26163;-47
2021/10/29 08:47:40;;;;;;;36.85;24.98;;;;;;;15.55;62.70;100866.27;1808062;78;25386;-50
2021/10/29 08:50:16;;;;;;;36.77;26.90;;;;;;;16.02;63.11;100866.73;1807916;79;27252;-48
2021/10/29 08:52:50;;;;;;;34.75;25.60;;;;;;;16.42;58.46;100874.47;1807026;79;25433;-47
2021/10/29 08:55:25;;;;;;;40.05;26.73;;;;;;;16.39;58.87;100869.09;1807953;79;25495;-48
2021/10/29 08:57:49;;;;;;;31.87;25.72;;;;;;;16.50;59.57;100869.50;1807634;78;25660;-49
2021/10/29 09:00:23;;;;;;;37.33;25.85;;;;;;;16.65;58.79;100863.95;1808019;79;25356;-51
2021/10/29 09:05:44;;;;;;;31.90;26.02;;;;;;;17.27;55.47;100861.42;1807947;79;25395;-48
2021/10/29 09:32:57;;;;;;;30.17;23.27;;;;;;;20.88;48.81;100853.19;1757093;81;25805;-50
2021/10/29 09:35:29;;;;;;;30.57;23.57;;;;;;;21.29;48.41;100856.83;1743452;82;25581;-50
2021/10/29 09:38:11;;;;;;;34.15;24.72;;;;;;;21.85;48.56;100855.34;1742878;82;26589;-52
2021/10/29 09:40:56;;;;;;;26.73;23.00;;;;;;;22.52;46.13;100853.82;1743258;82;25618;-50
2021/10/29 09:43:24;;;;;;;29.63;22.85;;;;;;;23.19;45.78;100854.30;1743321;82;27301;-48
2021/10/29 09:46:01;;;;;;;34.13;23.70;;;;;;;23.45;43.46;100851.94;1743572;82;25563;-48
2021/10/29 09:48:39;;;;;;;32.50;23.80;;;;;;;23.67;42.35;100863.91;1757077;81;25552;-50
2021/10/29 09:51:07;;;;;;;31.25;23.40;;;;;;;23.79;42.23;100852.35;1785535;79;25592;-48
2021/10/29 09:53:44;;;;;;;;;;;;;;;24.04;42.92;100857.44;1810249;78;25550;-48
2021/10/29 09:58:53;;;;;;;30.20;23.90;;;;;;;23.23;43.20;100851.58;1808123;78;25701;-47
2021/10/29 10:01:22;;;;;;;28.10;23.27;;;;;;;23.18;42.97;100847.19;1808035;79;25588;-44
2021/10/29 10:03:52;;;;;;;28.67;23.52;;;;;;;22.57;42.41;100842.45;1807988;78;26141;-47
2021/10/29 10:06:25;;;;;;;29.48;23.87;;;;;;;22.69;43.94;100846.31;1807967;78;25848;-46
2021/10/29 10:08:55;;;;;;;31.80;23.95;;;;;;;22.85;42.27;100848.04;1808159;78;27185;-48
2021/10/29 10:11:27;;;;;;;31.57;23.60;;;;;;;23.05;43.50;100843.89;1808021;79;25477;-47
2021/10/29 10:13:57;;;;;;;32.53;23.75;;;;;;;23.61;43.57;100850.25;1808191;79;25570;-53
2021/10/29 10:16:30;;;;;;;29.15;22.70;;;;;;;23.86;42.29;100845.51;1808127;79;26221;-47
2021/10/29 10:18:59;;;;;;;30.02;23.45;;;;;;;24.19;43.38;100846.44;1808246;78;25422;-48
2021/10/29 10:21:31;;;;;;;30.08;23.70;;;;;;;24.75;43.00;100840.10;1808334;79;27990;-46
2021/10/29 10:24:01;;;;;;;30.00;23.00;;;;;;;25.11;41.14;100840.91;1808166;78;25546;-47
2021/10/29 10:26:41;;;;;;;28.20;22.80;;;;;;;25.53;41.25;100839.92;1797219;79;25372;-47
2021/10/29 10:29:24;;;;;;;29.30;23.30;;;;;;;25.69;39.76;100838.10;1807222;78;25678;-46
2021/10/29 10:43:17;;;;;;;30.27;22.80;;;;;;;24.61;36.67;100815.39;1808123;79;26265;-47
2021/10/29 10:57:02;;;;;;;32.17;22.02;;;;;;;24.56;37.67;100821.30;1808099;79;26216;-52
2021/10/29 11:11:19;;;;;;;30.60;21.57;;;;;;;22.63;39.61;100807.06;1805254;79;25605;-52
2021/10/29 11:14:00;;;;;;;31.42;21.17;;;;;;;22.70;39.40;100811.28;1805298;79;25707;-49
2021/10/29 11:16:38;;;;;;;29.50;20.45;;;;;;;22.12;39.72;100804.34;1805332;79;27259;-49
2021/10/29 11:19:22;;;;;;;28.60;21.20;;;;;;;22.17;41.48;100799.87;1805510;79;25739;-49
2021/10/29 11:21:57;;;;;;;33.98;21.55;;;;;;;22.23;39.85;100794.81;1761397;81;25444;-52
2021/10/29 11:24:36;;;;;;;26.60;19.50;;;;;;;22.16;41.46;100789.42;1805275;79;25669;-50
2021/10/29 11:27:18;;;;;;;26.60;20.30;;;;;;;22.41;40.58;100796.40;1763349;81;32780;-52
2021/10/29 11:29:56;;;;;;;28.77;19.55;;;;;;;22.11;40.03;100791.73;1805333;79;27252;-47
2021/10/29 11:32:25;;;;;;;27.93;19.73;;;;;;;21.83;40.37;100784.70;1763794;81;25577;-50
2021/10/29 11:35:02;;;;;;;26.05;20.10;;;;;;;21.78;41.23;100778.94;1805311;79;25421;-51
2021/10/29 11:37:35;;;;;;;27.98;20.75;;;;;;;21.60;40.71;100785.56;1805139;79;25716;-52
2021/10/29 11:40:02;;;;;;;27.15;20.45;;;;;;;21.57;40.97;100780.02;1819689;78;25384;-48
2021/10/29 11:42:30;;;;;;;26.27;20.27;;;;;;;21.47;40.71;100777.34;1814078;78;27839;-48
2021/10/29 11:45:02;;;;;;;28.98;19.55;;;;;;;21.10;41.28;100775.19;1810837;79;25555;-51
2021/10/29 11:47:29;;;;;;;28.35;20.00;;;;;;;21.00;41.11;100766.98;1810800;78;25365;-51
2021/10/29 11:50:12;;;;;;;27.52;20.05;;;;;;;20.67;41.34;100770.34;1810848;79;25606;-49
2021/10/29 11:52:42;;;;;;;25.40;18.95;;;;;;;20.19;41.47;100765.72;1810954;77;25412;-53
2021/10/29 11:55:39;;;;;;;27.98;18.30;;;;;;;20.11;42.15;100763.42;1810911;79;27937;-50
2021/10/29 11:58:05;;;;;;;25.80;18.95;;;;;;;20.09;42.52;100761.03;1808095;79;25712;-54
2021/10/29 12:08:47;;;;;;;25.92;18.45;;;;;;;20.37;45.06;100742.72;1742433;81;27195;-53
2021/10/29 12:11:19;;;;;;;26.60;17.75;;;;;;;20.58;44.11;100748.57;1763007;81;25824;-55
2021/10/29 12:13:46;;;;;;;26.05;17.60;;;;;;;20.76;43.30;100741.26;1763191;81;25487;-54
2021/10/29 12:16:19;;;;;;;26.48;17.42;;;;;;;20.79;42.72;100738.56;1763169;81;25716;-53
2021/10/29 12:19:05;;;;;;;22.55;16.40;;;;;;;20.72;43.07;100735.67;1763193;81;25415;-52
2021/10/29 12:21:31;;;;;;;27.42;18.12;;;;;;;20.68;43.22;100730.71;1761752;81;27291;-54
2021/10/29 12:23:57;;;;;;;26.07;17.05;;;;;;;20.91;43.52;100729.33;1762661;81;25597;-56
2021/10/29 12:26:31;;;;;;;24.32;17.02;;;;;;;20.81;42.96;100726.62;1763097;81;25545;-54
2021/10/29 12:28:56;;;;;;;;;;;;;;;20.78;42.76;100723.81;1764791;81;25618;-54
2021/10/29 12:31:51;;;;;;;28.77;17.37;;;;;;;20.53;42.32;100722.77;1763132;81;32390;-54
2021/10/29 12:34:31;;;;;;;23.50;17.15;;;;;;;20.36;42.46;100725.42;1760095;81;29320;-54
2021/10/29 13:01:59;;;;;;;18.48;14.05;;;;;;;20.89;42.43;100693.95;1770864;81;27254;-50
2021/10/29 13:04:44;;;;;;;21.42;15.08;;;;;;;21.05;43.36;100693.00;1770849;81;25516;-47
2021/10/29 13:07:12;;;;;;;19.70;15.08;;;;;;;21.26;42.62;100687.78;1782858;78;25483;-48
2021/10/29 13:09:41;;;;;;;19.47;14.17;;;;;;;21.23;42.24;100681.67;1798893;78;25578;-46
2021/10/29 13:14:44;;;;;;;21.10;15.25;;;;;;;20.80;41.38;100685.75;1798709;78;27080;-49
2021/10/29 13:17:13;;;;;;;17.23;13.32;;;;;;;20.53;42.21;100687.05;1818862;78;25337;-48
2021/10/29 13:19:52;;;;;;;20.40;13.28;;;;;;;20.38;42.00;100689.34;1799303;78;25440;-49
2021/10/29 13:22:54;;;;;;;;;;;;;;;20.18;42.59;100681.76;1820114;78;25671;-50
2021/10/29 13:36:01;;;;;;;18.17;13.58;;;;;;;20.38;43.17;100681.10;1819074;78;25734;-45
2021/10/29 13:54:59;;;;;;;18.57;12.68;;;;;;;20.15;43.50;100669.53;1819231;78;27345;-48
2021/10/29 13:57:45;;;;;;;19.30;13.08;;;;;;;20.03;43.46;100677.36;1798150;78;25567;-50
2021/10/29 14:00:17;;;;;;;18.93;12.53;;;;;;;19.96;43.77;100673.90;1816729;78;25416;-48
2021/10/29 14:02:46;;;;;;;19.50;13.05;;;;;;;19.80;43.90;100673.77;1822752;78;25687;-48
2021/10/29 14:16:40;;;;;;;20.88;13.68;;;;;;;18.78;43.22;100683.11;1808109;79;25611;-46
2021/10/29 14:28:05;;;;;;;17.45;13.08;;;;;;;17.71;44.22;100671.52;1808066;79;25617;-49
2021/10/29 14:35:33;;;;;;;17.87;12.75;;;;;;;16.70;45.96;100665.77;1808076;79;27290;-48
2021/10/29 14:40:47;;;;;;;18.17;12.03;;;;;;;16.33;46.85;100658.89;1808100;79;25409;-47
2021/10/29 14:43:18;;;;;;;20.27;12.58;;;;;;;16.19;47.26;100657.85;1807790;78;26189;-47
2021/10/29 14:46:31;;;;;;;18.40;12.55;;;;;;;16.01;47.25;100653.70;1808051;78;25520;-49
2021/10/29 15:42:50;;;;;;;25.77;14.78;;;;;;;12.35;54.06;100639.12;1705620;83;27748;-63
2021/10/29 15:45:23;;;;;;;27.50;16.15;;;;;;;12.30;54.67;100644.91;1704522;84;25566;-46
2021/10/29 15:48:01;;;;;;;28.23;16.67;;;;;;;12.27;55.01;100633.31;1705035;84;25573;-48
2021/10/29 15:50:18;;;;;;;25.68;16.37;;;;;;;12.21;54.76;100633.77;1703359;84;27835;-48
2021/10/29 15:52:51;;;;;;;29.82;18.40;;;;;;;12.15;55.12;100635.25;1705569;84;25395;-49